Time;durP1;ratioP1;P1;durP2;ratioP2;P2;SDS_P1;SDS_P2;PMS_P1;PMS_P2;Temp;Humidity;BMP_temperature;BMP_pressure;BME280_temperature;BME280_humidity;BME280_pressure;Samples;Min_cycle;Max_cycle;Signal;HPM_P1;HPM_P2
2022/03/22 00:00:07;;;;;;;28.17;12.93;;;3.40;51.10;;;;;;5085296;28;20456;-60
2022/03/22 00:02:33;;;;;;;26.30;14.00;;;3.30;51.10;;;;;;5067661;28;20169;-60
2022/03/22 00:04:59;;;;;;;22.00;12.53;;;3.30;51.20;;;;;;5067052;28;21023;-60
2022/03/22 00:07:24;;;;;;;25.40;13.67;;;3.30;51.20;;;;;;5059628;28;20178;-61
2022/03/22 00:09:50;;;;;;;22.80;13.30;;;3.30;51.10;;;;;;5067351;28;20202;-60
2022/03/22 00:12:16;;;;;;;20.47;12.13;;;3.20;51.00;;;;;;5059360;28;20283;-61
2022/03/22 00:14:44;;;;;;;23.30;13.00;;;3.20;51.10;;;;;;5071007;28;20258;-63
2022/03/22 00:17:10;;;;;;;22.10;13.37;;;3.10;50.90;;;;;;5053428;28;20426;-61
2022/03/22 00:19:36;;;;;;;21.90;12.00;;;3.10;51.00;;;;;;5067951;28;20467;-61
2022/03/22 00:22:04;;;;;;;21.10;11.70;;;3.10;51.10;;;;;;5070240;28;20420;-60
2022/03/22 00:24:30;;;;;;;23.27;11.93;;;3.00;51.10;;;;;;5056423;28;20174;-60
2022/03/22 00:26:56;;;;;;;23.03;12.57;;;3.00;51.20;;;;;;5063665;28;20433;-60
2022/03/22 00:29:22;;;;;;;27.30;12.77;;;3.00;51.30;;;;;;5063749;28;20439;-60
2022/03/22 00:31:47;;;;;;;23.70;13.43;;;3.00;51.40;;;;;;5065708;28;20230;-61
2022/03/22 00:34:13;;;;;;;26.33;13.03;;;3.00;51.60;;;;;;5061782;28;20444;-60
2022/03/22 00:36:40;;;;;;;24.33;13.57;;;3.00;51.70;;;;;;5059393;28;20173;-61
2022/03/22 00:39:05;;;;;;;22.50;12.03;;;3.00;51.70;;;;;;5057304;28;20196;-60
2022/03/22 00:41:31;;;;;;;30.37;13.50;;;3.00;51.70;;;;;;5062976;28;20463;-61
2022/03/22 00:43:57;;;;;;;27.77;13.83;;;2.90;51.60;;;;;;5064548;28;20179;-60
2022/03/22 00:46:23;;;;;;;22.93;11.97;;;2.90;51.60;;;;;;5071513;28;21103;-60
2022/03/22 00:48:49;;;;;;;21.97;13.43;;;2.80;51.50;;;;;;5064798;28;20278;-60
2022/03/22 00:51:15;;;;;;;23.47;13.00;;;2.80;51.60;;;;;;5066185;28;20205;-61
2022/03/22 00:53:41;;;;;;;28.20;12.50;;;2.70;51.70;;;;;;5065565;28;20182;-61
2022/03/22 00:56:08;;;;;;;24.27;12.50;;;2.70;51.80;;;;;;5079936;22;20428;-49
2022/03/22 00:58:34;;;;;;;24.33;12.97;;;2.70;52.10;;;;;;5112747;27;20463;-53
2022/03/22 01:01:00;;;;;;;26.97;12.73;;;2.60;52.10;;;;;;5107669;27;20529;-52
2022/03/22 01:03:28;;;;;;;26.77;14.10;;;2.60;52.10;;;;;;5106524;28;20555;-56
2022/03/22 01:05:54;;;;;;;23.37;13.07;;;2.60;52.10;;;;;;5105391;27;20444;-54
2022/03/22 01:08:20;;;;;;;23.93;12.33;;;2.60;52.30;;;;;;5085339;28;20452;-53
2022/03/22 01:10:52;;;;;;;22.23;12.80;;;2.60;52.30;;;;;;5074525;28;20610;-52
2022/03/22 01:13:18;;;;;;;24.03;13.30;;;2.60;52.20;;;;;;5088385;28;20594;-53
2022/03/22 01:15:44;;;;;;;28.50;12.90;;;2.60;52.20;;;;;;5076767;28;20446;-52
2022/03/22 01:18:11;;;;;;;27.53;13.23;;;2.50;52.50;;;;;;5082125;28;20441;-53
2022/03/22 01:20:42;;;;;;;24.70;12.90;;;2.50;52.50;;;;;;5088666;28;20178;-52
2022/03/22 01:23:10;;;;;;;26.30;12.97;;;2.50;53.10;;;;;;5079984;28;20550;-53
2022/03/22 01:25:38;;;;;;;21.93;13.00;;;2.50;52.70;;;;;;5083319;28;21024;-54
2022/03/22 01:28:07;;;;;;;23.80;13.83;;;2.40;52.50;;;;;;5077585;28;20443;-52
2022/03/22 01:30:33;;;;;;;23.03;13.07;;;2.40;52.60;;;;;;5091514;28;20452;-54
2022/03/22 01:32:59;;;;;;;24.07;12.57;;;2.40;52.80;;;;;;5084088;28;20837;-51
2022/03/22 01:35:25;;;;;;;20.97;11.97;;;2.30;52.70;;;;;;5081922;28;20959;-54
2022/03/22 01:37:53;;;;;;;21.97;12.47;;;2.30;52.70;;;;;;5089405;28;20657;-53
2022/03/22 01:40:21;;;;;;;22.13;12.33;;;2.30;52.90;;;;;;5087333;28;20431;-59
2022/03/22 01:42:47;;;;;;;21.37;12.70;;;2.30;53.00;;;;;;5078939;28;20447;-54
2022/03/22 01:45:15;;;;;;;30.47;14.23;;;2.20;53.10;;;;;;5082210;28;20520;-55
2022/03/22 01:47:43;;;;;;;21.43;12.73;;;2.20;53.20;;;;;;5086159;28;20452;-57
2022/03/22 01:50:11;;;;;;;28.40;14.37;;;2.20;53.30;;;;;;5075904;28;20461;-52
2022/03/22 01:52:45;;;;;;;23.50;13.47;;;2.10;53.40;;;;;;5079105;28;20428;-52
2022/03/22 01:55:13;;;;;;;32.23;14.13;;;2.10;53.60;;;;;;5076937;28;20430;-53
2022/03/22 01:57:39;;;;;;;25.70;13.70;;;2.00;53.60;;;;;;5086791;28;20849;-53
2022/03/22 02:00:08;;;;;;;22.47;12.13;;;2.00;53.70;;;;;;5092874;28;20431;-54
2022/03/22 02:08:08;;;;;;;21.17;12.10;;;1.90;53.60;;;;;;5088900;28;20502;-53
2022/03/22 02:10:34;;;;;;;23.50;12.73;;;1.90;53.70;;;;;;5080038;28;20516;-55
2022/03/22 02:13:01;;;;;;;25.10;14.20;;;1.80;53.60;;;;;;5084482;28;20450;-53
2022/03/22 02:15:27;;;;;;;24.13;12.53;;;1.80;53.70;;;;;;5077846;28;20521;-54
2022/03/22 02:17:53;;;;;;;23.40;13.03;;;1.70;53.70;;;;;;5084815;28;20882;-52
2022/03/22 02:20:18;;;;;;;23.40;12.90;;;1.70;54.00;;;;;;5078742;28;20172;-52
2022/03/22 02:22:51;;;;;;;27.10;13.17;;;1.70;54.20;;;;;;5085320;28;20178;-50
2022/03/22 02:25:18;;;;;;;28.00;13.03;;;1.60;54.30;;;;;;5077223;28;20208;-53
2022/03/22 02:27:44;;;;;;;21.23;12.33;;;1.60;54.40;;;;;;5081048;28;20896;-51
2022/03/22 02:30:12;;;;;;;22.67;13.10;;;1.60;54.50;;;;;;5077150;28;20513;-54
2022/03/22 02:32:38;;;;;;;22.73;12.70;;;1.60;54.50;;;;;;5073552;28;20433;-51
2022/03/22 02:35:04;;;;;;;26.17;14.13;;;1.60;55.10;;;;;;5073312;28;20433;-49
2022/03/22 02:37:30;;;;;;;33.60;12.53;;;1.60;54.60;;;;;;5076545;28;20521;-53
2022/03/22 02:39:56;;;;;;;25.47;13.50;;;1.60;54.50;;;;;;5077829;28;21155;-50
2022/03/22 02:42:21;;;;;;;24.50;15.17;;;1.60;54.40;;;;;;5076373;28;20261;-51
2022/03/22 02:44:47;;;;;;;31.67;13.33;;;1.50;54.40;;;;;;5077824;28;20179;-53
2022/03/22 02:47:13;;;;;;;29.07;14.20;;;1.50;54.70;;;;;;5079273;28;20194;-53
2022/03/22 02:49:39;;;;;;;26.70;13.77;;;1.50;54.70;;;;;;5079359;28;20224;-55
2022/03/22 02:52:06;;;;;;;27.47;15.20;;;1.40;54.80;;;;;;5078427;28;20501;-55
2022/03/22 02:54:32;;;;;;;28.60;15.13;;;1.40;54.80;;;;;;5079744;28;20466;-53
2022/03/22 02:56:57;;;;;;;29.00;13.93;;;1.40;54.80;;;;;;5077722;28;20463;-52
2022/03/22 02:59:23;;;;;;;26.37;13.20;;;1.30;54.80;;;;;;5079514;28;20241;-54
2022/03/22 03:01:49;;;;;;;22.03;13.13;;;1.30;54.90;;;;;;5079622;28;20673;-51
2022/03/22 03:04:14;;;;;;;26.57;14.17;;;1.20;55.00;;;;;;5081269;28;20610;-49
2022/03/22 03:06:40;;;;;;;24.43;13.30;;;1.20;55.10;;;;;;5078556;28;20696;-53
2022/03/22 03:09:05;;;;;;;28.67;13.70;;;1.20;55.30;;;;;;5084081;28;20185;-54
2022/03/22 03:11:31;;;;;;;31.90;13.67;;;1.20;55.30;;;;;;5080232;28;20211;-51
2022/03/22 03:16:41;;;;;;;30.10;14.43;;;1.10;55.40;;;;;;5086133;28;20202;-53
2022/03/22 03:19:07;;;;;;;26.57;12.20;;;1.00;55.50;;;;;;5084646;28;20529;-52
2022/03/22 03:21:33;;;;;;;25.90;13.57;;;1.00;55.70;;;;;;5081904;28;20226;-52
2022/03/22 03:23:59;;;;;;;41.57;16.17;;;1.00;55.90;;;;;;5083113;28;20180;-55
2022/03/22 03:26:25;;;;;;;27.27;14.37;;;1.00;56.00;;;;;;5085228;28;20587;-51
2022/03/22 03:28:50;;;;;;;27.43;13.80;;;1.00;56.00;;;;;;5078756;28;20549;-54
2022/03/22 03:31:16;;;;;;;34.03;14.60;;;1.00;56.00;;;;;;5084595;28;20580;-56
2022/03/22 03:33:42;;;;;;;36.60;14.50;;;1.00;56.20;;;;;;5082888;28;20793;-53
2022/03/22 03:36:08;;;;;;;28.80;15.30;;;0.90;56.20;;;;;;5084780;28;20410;-54
2022/03/22 03:38:41;;;;;;;25.20;14.00;;;0.90;56.40;;;;;;5083263;28;20175;-56
2022/03/22 03:43:55;;;;;;;29.07;14.67;;;0.90;56.60;;;;;;5080766;28;20456;-53
2022/03/22 03:49:06;;;;;;;31.93;14.63;;;0.90;56.60;;;;;;5081204;28;20492;-56
2022/03/22 03:51:33;;;;;;;24.40;13.53;;;0.90;56.70;;;;;;5082242;28;20481;-50
2022/03/22 03:54:00;;;;;;;25.60;13.47;;;0.80;56.50;;;;;;5081661;28;20419;-54
2022/03/22 03:56:25;;;;;;;25.13;13.50;;;0.80;56.60;;;;;;5083358;28;20580;-54
2022/03/22 03:58:51;;;;;;;25.30;13.20;;;0.80;56.80;;;;;;5084035;28;20515;-54
2022/03/22 04:01:17;;;;;;;28.03;14.03;;;0.80;57.00;;;;;;5081317;28;20180;-51
2022/03/22 04:03:42;;;;;;;27.23;13.80;;;0.70;57.10;;;;;;5081319;28;20177;-51
2022/03/22 04:06:08;;;;;;;26.57;13.87;;;0.70;57.40;;;;;;5084139;28;20175;-53
2022/03/22 04:08:33;;;;;;;28.47;13.67;;;0.70;57.40;;;;;;5084811;28;20178;-52
2022/03/22 04:10:59;;;;;;;26.37;13.10;;;0.70;57.20;;;;;;5080647;28;20274;-53
2022/03/22 04:13:25;;;;;;;24.70;12.60;;;0.70;57.40;;;;;;5079794;28;20199;-52
2022/03/22 04:15:52;;;;;;;25.80;13.57;;;0.60;57.60;;;;;;5079272;28;20175;-53
2022/03/22 04:18:17;;;;;;;26.97;14.00;;;0.60;57.90;;;;;;5084419;28;20694;-52
2022/03/22 04:20:43;;;;;;;22.43;12.43;;;0.60;58.10;;;;;;5078182;28;20423;-53
2022/03/22 04:23:09;;;;;;;28.60;13.53;;;0.50;58.00;;;;;;5080727;28;20649;-52
2022/03/22 04:25:34;;;;;;;28.33;14.70;;;0.50;58.20;;;;;;5077153;28;20259;-54
2022/03/22 04:33:29;;;;;;;27.93;12.83;;;0.40;58.60;;;;;;5080974;28;20471;-53
2022/03/22 04:35:54;;;;;;;25.67;13.10;;;0.40;58.70;;;;;;5078212;28;20425;-52
2022/03/22 04:38:20;;;;;;;24.33;13.47;;;0.30;58.80;;;;;;5082688;28;20511;-54
2022/03/22 04:40:47;;;;;;;24.57;13.80;;;0.30;59.20;;;;;;5079511;28;20185;-52
2022/03/22 04:43:12;;;;;;;23.53;13.30;;;0.30;59.60;;;;;;5079828;28;20211;-53
2022/03/22 04:45:38;;;;;;;25.97;13.13;;;0.20;59.60;;;;;;5078420;28;20506;-53
2022/03/22 04:48:04;;;;;;;22.53;13.30;;;0.20;59.40;;;;;;5082284;28;20282;-53
2022/03/22 04:50:30;;;;;;;22.57;13.20;;;0.20;59.30;;;;;;5078695;28;21005;-53
2022/03/22 04:56:43;;;;;;;27.17;13.83;;;0.20;59.90;;;;;;5085479;28;20321;-54
2022/03/22 04:58:34;;;;;;;27.30;13.27;;;0.20;60.30;;;;;;5076422;28;20858;-54
2022/03/22 05:01:00;;;;;;;27.40;13.23;;;0.30;60.70;;;;;;5082483;28;20494;-55
2022/03/22 05:03:25;;;;;;;26.53;13.77;;;0.30;61.10;;;;;;5080151;28;20175;-53
2022/03/22 05:08:35;;;;;;;28.10;13.23;;;0.30;61.40;;;;;;5075010;28;20663;-54
2022/03/22 05:11:01;;;;;;;28.27;13.67;;;0.30;60.90;;;;;;5076193;28;20453;-52
2022/03/22 05:13:27;;;;;;;29.10;15.00;;;0.30;60.20;;;;;;5075477;28;20168;-54
2022/03/22 05:15:52;;;;;;;30.63;14.77;;;0.20;59.90;;;;;;5073937;28;20242;-54
2022/03/22 05:18:19;;;;;;;29.47;15.53;;;0.20;59.90;;;;;;5074212;28;20200;-53
2022/03/22 05:20:45;;;;;;;27.43;14.73;;;0.10;60.30;;;;;;5074948;28;20204;-53
2022/03/22 05:23:10;;;;;;;36.63;15.03;;;0.10;60.80;;;;;;5081153;28;20469;-51
2022/03/22 05:25:36;;;;;;;28.97;14.90;;;0.00;61.00;;;;;;5085903;28;20198;-54
2022/03/22 05:28:03;;;;;;;24.40;13.80;;;0.00;61.30;;;;;;5079390;28;20221;-54
2022/03/22 05:30:30;;;;;;;24.00;13.80;;;0.00;61.70;;;;;;5077321;28;20680;-56
2022/03/22 05:32:56;;;;;;;32.53;14.83;;;0.00;62.50;;;;;;5074172;28;20581;-54
2022/03/22 05:35:23;;;;;;;27.33;14.17;;;0.00;63.50;;;;;;5081062;28;20948;-54
2022/03/22 05:37:49;;;;;;;26.03;12.70;;;0.00;63.20;;;;;;5076394;28;20204;-52
2022/03/22 05:40:16;;;;;;;29.27;14.90;;;0.10;63.20;;;;;;5076392;28;21168;-55
2022/03/22 05:42:42;;;;;;;31.70;15.03;;;0.10;63.00;;;;;;5079593;28;20440;-54
2022/03/22 05:45:09;;;;;;;29.20;14.20;;;0.10;63.10;;;;;;5077928;28;20437;-56
2022/03/22 05:47:36;;;;;;;26.43;14.10;;;0.00;62.80;;;;;;5082487;28;20490;-56
2022/03/22 05:50:02;;;;;;;30.90;14.80;;;0.00;62.90;;;;;;5081782;28;20520;-53
2022/03/22 05:52:27;;;;;;;25.73;14.67;;;0.00;63.20;;;;;;5080312;28;20470;-53
2022/03/22 05:54:53;;;;;;;30.60;15.97;;;0.00;63.50;;;;;;5079056;28;20433;-55
2022/03/22 05:57:18;;;;;;;29.30;14.23;;;0.00;63.60;;;;;;5079389;28;20216;-54
2022/03/22 05:59:44;;;;;;;33.63;14.93;;;0.00;64.00;;;;;;5088195;28;20269;-54
2022/03/22 06:02:10;;;;;;;32.97;15.57;;;0.00;64.70;;;;;;5078792;28;22614;-52
2022/03/22 06:04:36;;;;;;;27.70;14.20;;;0.00;64.90;;;;;;5079610;28;20222;-53
2022/03/22 06:07:02;;;;;;;32.50;15.37;;;-0.10;65.00;;;;;;5090494;28;20195;-54
2022/03/22 06:09:27;;;;;;;32.80;16.00;;;-0.10;65.10;;;;;;5086512;28;20559;-55
2022/03/22 06:11:53;;;;;;;34.47;16.33;;;-0.10;65.60;;;;;;5077449;28;20196;-56
2022/03/22 06:14:19;;;;;;;28.33;15.57;;;-0.10;66.30;;;;;;5082746;28;20175;-55
2022/03/22 06:16:44;;;;;;;37.30;17.03;;;0.00;66.80;;;;;;5086000;28;20314;-54
2022/03/22 06:19:10;;;;;;;34.97;16.00;;;0.00;66.30;;;;;;5083933;28;20231;-55
2022/03/22 06:21:36;;;;;;;30.73;15.97;;;0.10;65.60;;;;;;5092034;28;20190;-56
2022/03/22 06:24:01;;;;;;;28.97;16.33;;;0.20;65.30;;;;;;5085212;28;20180;-53
2022/03/22 06:26:27;;;;;;;30.30;15.73;;;0.30;65.20;;;;;;5087632;28;20199;-59
2022/03/22 06:28:52;;;;;;;31.67;16.17;;;0.40;64.70;;;;;;5076610;28;20561;-53
2022/03/22 06:31:18;;;;;;;29.50;15.47;;;0.50;63.90;;;;;;5083371;28;20572;-54
2022/03/22 06:33:44;;;;;;;32.07;14.60;;;0.50;64.10;;;;;;5081234;28;20180;-59
2022/03/22 06:36:09;;;;;;;27.10;14.40;;;0.60;64.40;;;;;;5083664;28;20186;-57
2022/03/22 06:38:36;;;;;;;32.80;15.27;;;0.70;64.10;;;;;;5087260;28;20178;-55
2022/03/22 06:41:02;;;;;;;27.60;14.67;;;0.80;64.00;;;;;;5081295;28;20175;-55
2022/03/22 06:43:28;;;;;;;25.47;14.13;;;0.90;63.70;;;;;;5093665;28;21021;-55
2022/03/22 06:45:54;;;;;;;30.87;15.97;;;0.90;64.20;;;;;;5095436;28;21050;-53
2022/03/22 06:48:21;;;;;;;31.47;15.73;;;1.00;64.40;;;;;;5090289;28;20441;-54
2022/03/22 06:50:48;;;;;;;34.47;16.70;;;1.10;64.30;;;;;;5082724;28;20568;-54
2022/03/22 06:53:17;;;;;;;34.50;14.97;;;1.20;65.50;;;;;;5101189;28;20429;-54
2022/03/22 06:55:46;;;;;;;34.13;16.90;;;1.20;65.40;;;;;;5085707;28;20831;-55
2022/03/22 06:58:12;;;;;;;37.03;17.27;;;1.40;65.20;;;;;;5083841;28;20547;-55
2022/03/22 07:00:38;;;;;;;37.60;16.00;;;1.40;64.70;;;;;;5088815;28;20454;-54
2022/03/22 07:03:04;;;;;;;42.53;17.90;;;1.50;63.70;;;;;;5089750;28;20439;-54
2022/03/22 07:05:30;;;;;;;35.60;16.27;;;1.60;63.70;;;;;;5093414;28;20432;-54
2022/03/22 07:07:56;;;;;;;34.70;16.63;;;1.70;63.40;;;;;;5093680;28;20510;-57
2022/03/22 07:10:22;;;;;;;30.43;17.47;;;1.70;63.50;;;;;;5088333;28;20445;-56
2022/03/22 07:12:56;;;;;;;44.83;17.70;;;1.80;63.40;;;;;;5108288;22;20486;-63
2022/03/22 07:15:32;;;;;;;31.97;14.63;;;1.90;63.10;;;;;;5113642;27;20181;-63
2022/03/22 07:18:00;;;;;;;35.90;17.03;;;1.90;62.60;;;;;;5114286;27;20479;-63
2022/03/22 07:20:26;;;;;;;31.43;15.03;;;2.00;62.30;;;;;;5109718;27;20453;-63
2022/03/22 07:22:51;;;;;;;29.97;14.90;;;2.10;61.60;;;;;;5108384;28;20432;-64
2022/03/22 07:25:17;;;;;;;28.90;15.50;;;2.20;61.20;;;;;;5094780;28;20819;-63
2022/03/22 07:27:44;;;;;;;34.57;17.67;;;2.20;61.20;;;;;;5089239;28;20162;-63
2022/03/22 07:30:11;;;;;;;40.43;18.30;;;2.30;61.70;;;;;;5085647;28;20460;-63
2022/03/22 07:32:37;;;;;;;35.17;17.60;;;2.40;61.60;;;;;;5085675;28;20829;-63
2022/03/22 07:35:04;;;;;;;28.63;17.47;;;2.50;61.50;;;;;;5088205;28;20431;-64
2022/03/22 07:37:30;;;;;;;29.83;15.77;;;2.60;61.10;;;;;;5089373;28;20481;-62
2022/03/22 07:39:59;;;;;;;35.90;18.00;;;2.70;61.00;;;;;;5085394;28;20427;-63
2022/03/22 07:42:29;;;;;;;32.27;16.80;;;2.80;61.20;;;;;;5081418;28;20728;-64
2022/03/22 07:45:01;;;;;;;37.50;19.10;;;3.00;61.40;;;;;;5083242;28;20417;-63
2022/03/22 07:47:28;;;;;;;36.33;17.70;;;3.10;61.10;;;;;;5082639;28;20443;-63
2022/03/22 07:55:22;;;;;;;32.60;15.40;;;3.50;60.80;;;;;;5089210;28;20420;-62
2022/03/22 07:57:48;;;;;;;24.93;14.53;;;3.60;61.00;;;;;;5079465;28;20818;-63
2022/03/22 08:00:14;;;;;;;30.33;14.53;;;3.80;59.90;;;;;;5093570;28;20777;-62
2022/03/22 08:02:56;;;;;;;33.80;16.60;;;3.90;59.50;;;;;;5095045;28;20185;-63
2022/03/22 08:05:22;;;;;;;38.10;17.83;;;4.00;59.40;;;;;;5078141;28;20416;-62
2022/03/22 08:07:48;;;;;;;43.83;18.77;;;4.20;59.20;;;;;;5078580;28;20977;-63
2022/03/22 08:10:14;;;;;;;38.07;19.77;;;4.30;58.70;;;;;;5080839;28;20498;-63
2022/03/22 08:12:41;;;;;;;44.33;20.30;;;4.40;57.50;;;;;;5084338;28;20949;-63
2022/03/22 08:15:10;;;;;;;40.63;19.17;;;4.50;57.20;;;;;;5078293;28;20428;-63
2022/03/22 08:17:37;;;;;;;45.57;18.77;;;4.60;57.00;;;;;;5086825;28;20463;-63
2022/03/22 08:20:05;;;;;;;34.00;17.80;;;4.70;57.00;;;;;;5089670;28;20426;-63
2022/03/22 08:22:33;;;;;;;32.67;18.30;;;4.80;56.50;;;;;;5081210;28;20851;-63
2022/03/22 08:24:59;;;;;;;41.30;19.33;;;4.90;56.20;;;;;;5090391;28;20940;-63
2022/03/22 08:27:24;;;;;;;32.97;17.63;;;5.10;56.00;;;;;;5090019;28;20439;-63
2022/03/22 08:29:51;;;;;;;38.03;19.57;;;5.30;56.00;;;;;;5092602;28;20419;-63
2022/03/22 08:32:17;;;;;;;41.00;18.80;;;5.40;55.40;;;;;;5075480;28;20690;-63
2022/03/22 08:34:42;;;;;;;35.47;18.60;;;5.60;55.10;;;;;;5083962;28;20486;-62
2022/03/22 08:37:08;;;;;;;34.17;18.70;;;5.80;54.20;;;;;;5086032;28;20174;-63
2022/03/22 08:39:33;;;;;;;39.30;18.10;;;5.90;53.50;;;;;;5084916;28;20638;-62
2022/03/22 08:41:59;;;;;;;40.30;18.80;;;6.00;53.00;;;;;;5078736;28;20300;-63
2022/03/22 08:44:25;;;;;;;33.63;19.10;;;6.20;52.40;;;;;;5089226;28;20182;-62
2022/03/22 08:46:51;;;;;;;37.90;17.87;;;6.30;52.00;;;;;;5074327;28;20783;-63
2022/03/22 08:49:17;;;;;;;72.63;20.40;;;6.50;52.20;;;;;;5088741;28;20183;-63
2022/03/22 08:51:43;;;;;;;46.27;19.30;;;6.70;51.50;;;;;;5077576;28;20452;-63
2022/03/22 08:54:10;;;;;;;35.40;19.00;;;6.90;51.50;;;;;;5071937;28;20433;-63
2022/03/22 08:56:35;;;;;;;41.17;21.37;;;7.10;51.10;;;;;;5087092;28;20481;-63
2022/03/22 08:59:01;;;;;;;44.87;20.13;;;7.30;50.50;;;;;;5086268;28;20189;-63
2022/03/22 09:01:27;;;;;;;63.07;20.23;;;7.50;50.50;;;;;;5083341;28;20219;-62
2022/03/22 09:06:38;;;;;;;50.00;19.23;;;7.90;50.10;;;;;;5076861;28;20423;-63
2022/03/22 09:09:05;;;;;;;46.40;18.70;;;8.10;49.80;;;;;;5075568;28;20436;-63
2022/03/22 09:11:31;;;;;;;49.93;18.93;;;8.40;49.60;;;;;;5098837;28;20842;-62
2022/03/22 09:13:56;;;;;;;33.47;17.60;;;8.60;49.20;;;;;;5094257;28;20467;-64
2022/03/22 09:16:22;;;;;;;30.60;16.93;;;8.90;48.30;;;;;;5104761;28;20188;-63
2022/03/22 09:18:48;;;;;;;31.33;14.33;;;9.20;47.00;;;;;;5089543;28;20660;-63
2022/03/22 09:21:16;;;;;;;29.50;15.60;;;9.40;44.00;;;;;;5094566;28;20186;-63
2022/03/22 09:23:42;;;;;;;39.00;16.97;;;9.60;43.70;;;;;;5086663;28;20915;-63
2022/03/22 09:26:08;;;;;;;28.40;16.70;;;9.80;43.20;;;;;;5087032;28;20506;-64
2022/03/22 09:28:34;;;;;;;26.33;15.00;;;10.00;42.50;;;;;;5087812;28;20459;-63
2022/03/22 09:31:00;;;;;;;26.43;14.43;;;10.30;42.60;;;;;;5079893;28;20495;-63
2022/03/22 09:33:25;;;;;;;33.87;16.93;;;10.50;41.50;;;;;;5086379;28;20198;-63
2022/03/22 09:35:53;;;;;;;28.43;14.93;;;10.70;41.20;;;;;;5087382;28;20913;-62
2022/03/22 09:38:20;;;;;;;30.47;14.57;;;11.00;40.50;;;;;;5081802;28;20264;-63
2022/03/22 09:40:45;;;;;;;28.13;15.30;;;11.10;39.90;;;;;;5082132;28;20960;-57
2022/03/22 09:43:12;;;;;;;25.50;14.90;;;11.30;39.40;;;;;;5089630;28;20462;-57
2022/03/22 09:45:38;;;;;;;25.30;14.07;;;11.40;39.10;;;;;;5091101;28;20341;-58
2022/03/22 09:48:04;;;;;;;30.50;15.23;;;11.60;39.40;;;;;;5083983;28;20451;-63
2022/03/22 09:53:16;;;;;;;27.50;15.63;;;11.90;40.00;;;;;;5088866;28;20439;-64
2022/03/22 09:55:42;;;;;;;33.27;16.40;;;12.10;40.10;;;;;;5086591;28;20412;-63
2022/03/22 09:58:08;;;;;;;22.30;14.13;;;12.30;39.20;;;;;;5070826;28;20495;-64
2022/03/22 10:00:34;;;;;;;28.17;13.80;;;12.60;38.50;;;;;;5085386;28;20555;-63
2022/03/22 10:03:00;;;;;;;25.37;14.07;;;12.80;38.20;;;;;;5088192;28;20451;-64
2022/03/22 10:05:28;;;;;;;23.07;13.43;;;13.00;37.10;;;;;;5084411;28;20432;-63
2022/03/22 10:08:03;;;;;;;33.00;13.97;;;13.20;37.40;;;;;;5079381;28;20440;-64
2022/03/22 10:10:29;;;;;;;24.20;12.77;;;13.40;36.90;;;;;;5082303;28;20836;-64
2022/03/22 10:13:00;;;;;;;31.47;13.60;;;13.60;36.30;;;;;;5088610;28;20542;-63
2022/03/22 10:15:34;;;;;;;23.20;13.00;;;13.70;35.30;;;;;;5084185;28;20217;-63
2022/03/22 10:18:08;;;;;;;23.30;12.20;;;13.90;34.50;;;;;;5086667;28;20489;-63
2022/03/22 10:20:37;;;;;;;28.50;12.10;;;14.00;34.20;;;;;;5089354;28;20479;-64
2022/03/22 10:23:05;;;;;;;27.07;11.73;;;14.20;33.40;;;;;;5087051;28;20811;-63
2022/03/22 10:25:32;;;;;;;24.13;12.30;;;14.20;33.30;;;;;;5087609;28;20541;-62
2022/03/22 10:28:03;;;;;;;23.40;13.40;;;14.30;31.30;;;;;;5087264;28;20518;-63
2022/03/22 10:30:30;;;;;;;25.13;14.20;;;14.40;32.20;;;;;;5088470;28;20487;-64
2022/03/22 10:32:56;;;;;;;25.07;13.87;;;14.50;33.20;;;;;;5089061;28;20498;-63
2022/03/22 10:35:33;;;;;;;21.90;12.07;;;14.60;32.60;;;;;;5081355;28;20436;-64
2022/03/22 10:38:00;;;;;;;26.97;13.30;;;14.70;32.60;;;;;;5077273;28;20985;-61
2022/03/22 10:40:44;;;;;;;32.60;13.30;;;14.80;31.10;;;;;;5080507;28;20435;-60
2022/03/22 10:43:16;;;;;;;22.97;12.30;;;14.90;30.10;;;;;;5082571;28;20510;-61
2022/03/22 10:45:52;;;;;;;22.17;12.93;;;15.00;31.30;;;;;;5077509;28;20417;-63
2022/03/22 10:48:34;;;;;;;20.33;12.70;;;15.10;30.90;;;;;;5082976;28;20973;-61
2022/03/22 10:51:01;;;;;;;20.33;11.60;;;15.20;30.90;;;;;;5081369;28;20497;-61
2022/03/22 10:53:29;;;;;;;25.27;11.70;;;15.30;29.30;;;;;;5086018;28;20432;-61
2022/03/22 10:55:57;;;;;;;17.17;11.10;;;15.40;29.60;;;;;;5091818;28;20447;-61
2022/03/22 10:58:25;;;;;;;18.50;10.10;;;15.50;28.80;;;;;;5077376;28;20970;-61
2022/03/22 11:00:52;;;;;;;17.10;9.73;;;15.60;28.50;;;;;;5085300;28;20505;-62
2022/03/22 11:03:18;;;;;;;19.20;10.83;;;15.80;29.20;;;;;;5089378;28;20827;-61
2022/03/22 11:05:51;;;;;;;21.43;9.97;;;15.90;28.20;;;;;;5091596;28;20500;-61
2022/03/22 11:08:22;;;;;;;17.07;10.20;;;16.00;26.20;;;;;;5086387;28;20925;-61
2022/03/22 11:10:50;;;;;;;13.83;9.87;;;16.00;25.50;;;;;;5079692;28;20964;-61
2022/03/22 11:13:16;;;;;;;16.77;10.13;;;16.00;25.20;;;;;;5094837;28;20455;-61
2022/03/22 11:15:46;;;;;;;18.50;11.03;;;16.10;26.20;;;;;;5086928;28;21008;-61
2022/03/22 11:18:14;;;;;;;17.40;9.73;;;16.20;25.20;;;;;;5084212;28;20177;-61
2022/03/22 11:20:55;;;;;;;21.00;9.83;;;16.30;25.80;;;;;;5086359;28;20407;-61
2022/03/22 11:23:22;;;;;;;17.00;9.80;;;16.40;25.50;;;;;;5087972;28;20981;-63
2022/03/22 11:25:48;;;;;;;17.10;9.07;;;16.50;24.70;;;;;;5093870;28;20517;-61
2022/03/22 11:28:18;;;;;;;17.00;9.20;;;16.60;24.40;;;;;;5091459;28;20525;-61
2022/03/22 11:30:46;;;;;;;14.40;8.97;;;16.70;25.10;;;;;;5089386;28;20243;-62
2022/03/22 11:36:12;;;;;;;19.07;9.50;;;16.90;22.90;;;;;;5081486;28;20437;-61
2022/03/22 11:38:49;;;;;;;13.97;9.67;;;16.90;23.90;;;;;;5091641;28;20443;-62
2022/03/22 11:44:18;;;;;;;12.97;8.60;;;17.20;23.60;;;;;;5090961;28;20449;-61
2022/03/22 11:46:45;;;;;;;16.70;9.90;;;17.30;23.70;;;;;;5081184;28;20431;-62
2022/03/22 11:49:18;;;;;;;23.13;12.20;;;17.40;24.10;;;;;;5083414;28;20969;-65
2022/03/22 11:52:11;;;;;;;20.80;10.00;;;17.60;23.80;;;;;;5092297;28;20459;-62
2022/03/22 11:54:38;;;;;;;16.90;9.70;;;17.80;24.20;;;;;;5087389;28;20870;-62
2022/03/22 11:57:05;;;;;;;20.20;10.73;;;18.00;24.20;;;;;;5085776;28;21021;-62
2022/03/22 11:59:41;;;;;;;12.40;8.70;;;18.20;24.30;;;;;;5091603;28;20459;-61
2022/03/22 12:02:15;;;;;;;12.27;9.03;;;18.40;24.50;;;;;;5085517;28;20455;-59
2022/03/22 12:04:42;;;;;;;15.80;8.83;;;18.50;24.10;;;;;;5082292;28;20463;-61
2022/03/22 12:07:11;;;;;;;15.50;9.33;;;18.70;24.00;;;;;;5083794;28;20459;-62
2022/03/22 12:09:42;;;;;;;19.07;8.80;;;18.80;23.60;;;;;;5086141;28;20835;-62
2022/03/22 12:12:10;;;;;;;21.70;9.07;;;19.00;24.10;;;;;;5044376;28;1075053;-61
2022/03/22 12:14:36;;;;;;;14.40;9.40;;;19.10;24.10;;;;;;5094524;28;20170;-61
2022/03/22 12:17:05;;;;;;;14.67;9.03;;;19.20;24.20;;;;;;5091999;28;20423;-62
2022/03/22 12:19:34;;;;;;;15.77;9.37;;;19.40;23.70;;;;;;5099248;28;20817;-62
2022/03/22 12:22:00;;;;;;;18.40;11.40;;;19.40;23.60;;;;;;5091788;28;20928;-61
2022/03/22 12:24:32;;;;;;;21.90;11.40;;;19.40;24.20;;;;;;5088887;28;20428;-61
2022/03/22 12:27:00;;;;;;;18.93;11.50;;;19.50;25.00;;;;;;5091307;28;20490;-63
2022/03/22 12:29:26;;;;;;;18.73;10.70;;;19.50;24.40;;;;;;5099543;28;20427;-62
2022/03/22 12:31:54;;;;;;;17.50;10.57;;;19.60;25.00;;;;;;5089922;28;20464;-61
2022/03/22 12:34:26;;;;;;;21.00;11.50;;;19.80;25.10;;;;;;5092249;28;20226;-61
2022/03/22 12:36:52;;;;;;;16.57;11.10;;;20.00;25.30;;;;;;5083935;28;20932;-61
2022/03/22 12:39:18;;;;;;;18.63;11.87;;;20.20;24.80;;;;;;5093228;28;20577;-61
2022/03/22 12:41:44;;;;;;;22.33;11.83;;;20.40;25.10;;;;;;5102163;28;20510;-61
2022/03/22 12:44:10;;;;;;;16.37;10.67;;;20.50;24.20;;;;;;5095763;28;20187;-61
2022/03/22 12:46:36;;;;;;;18.73;11.67;;;20.50;24.40;;;;;;5085123;28;20549;-61
2022/03/22 12:49:05;;;;;;;21.40;11.57;;;20.60;25.00;;;;;;5084642;28;20528;-62
2022/03/22 12:51:31;;;;;;;21.60;11.90;;;20.80;25.20;;;;;;5070788;28;20558;-62
2022/03/22 12:54:01;;;;;;;21.40;11.40;;;20.80;23.50;;;;;;5074345;28;20597;-60
2022/03/22 12:56:26;;;;;;;19.30;11.40;;;20.80;24.20;;;;;;5077898;28;20459;-61
2022/03/22 12:58:53;;;;;;;18.87;11.30;;;20.90;24.60;;;;;;5081187;28;20463;-61
2022/03/22 13:01:19;;;;;;;18.37;12.00;;;21.10;24.50;;;;;;5078879;28;20186;-64
2022/03/22 13:03:45;;;;;;;16.10;11.73;;;21.30;24.60;;;;;;5072567;28;20463;-62
2022/03/22 13:06:11;;;;;;;22.10;12.30;;;21.40;23.30;;;;;;5070376;28;20235;-62
2022/03/22 13:11:29;;;;;;;15.97;11.50;;;21.20;22.80;;;;;;5080573;28;20826;-62
2022/03/22 13:16:41;;;;;;;16.97;10.67;;;21.10;23.20;;;;;;5077582;28;20426;-61
2022/03/22 13:19:07;;;;;;;15.53;11.13;;;21.10;23.20;;;;;;5078310;28;20522;-61
2022/03/22 13:21:35;;;;;;;17.10;10.83;;;21.10;22.70;;;;;;5080649;28;20446;-62